Data for 12/14/2015

Time Sea-Level Adjusted Pressure Absolute Pressure Temperature Relative Humidity Dew Point   
(mb) (inHg) (mb) (inHg) (C) (F) (%) (C) (F)
00:05 1001 29.56 830 24.51 1.7 35 69 -3.4 25.9
00:10 1001 29.56 830 24.51 1.5 34.7 74 -2.6 27.2
00:15 1001 29.56 830 24.51 1.3 34.3 76 -2.5 27.6
00:20 1001 29.56 830 24.51 1.1 34.1 78 -2.2 28
00:25 1001 29.56 830 24.51 1.1 33.9 81 -1.9 28.6
00:30 1001 29.56 830 24.51 0.8 33.5 83 -1.7 29
00:35 1001 29.56 830 24.51 0.7 33.2 85 -1.6 29.1
00:40 1001 29.56 830 24.51 0.5 33 86 -1.6 29.2
00:45 1001 29.56 830 24.51 0.4 32.7 87 -1.5 29.2
00:50 1001 29.56 830 24.51 0.2 32.3 89 -1.5 29.3
00:55 1001 29.56 830 24.51 -0.1 31.9 91 -1.4 29.5
01:00 1001 29.56 830 24.51 -0.1 31.8 92 -1.3 29.6
01:05 1001 29.56 830 24.51 -0.2 31.6 92 -1.4 29.5
01:10 1001 29.56 830 24.51 -0.3 31.4 92 -1.4 29.4
01:15 1001 29.56 830 24.51 -0.4 31.3 93 -1.5 29.4
01:20 1001 29.56 830 24.51 -0.4 31.3 93 -1.4 29.5
01:25 1001 29.56 830 24.51 -0.4 31.4 93 -1.3 29.6
01:30 1001 29.56 830 24.51 -0.3 31.4 93 -1.3 29.7
01:35 1001 29.56 830 24.51 -0.3 31.5 93 -1.2 29.8
01:40 1001 29.56 830 24.51 -0.3 31.5 94 -1.2 29.8
01:45 1001 29.56 830 24.51 -0.3 31.5 94 -1.2 29.8
01:50 1001 29.56 830 24.51 -0.3 31.5 94 -1.2 29.8
01:55 1001 29.56 830 24.51 -0.3 31.5 94 -1.2 29.9
02:00 1001 29.56 830 24.51 -0.2 31.6 94 -1.1 30
02:05 1001 29.56 830 24.51 -0.2 31.6 94 -1.1 30
02:10 1001 29.56 830 24.51 -0.2 31.6 94 -1.1 30
02:15 1001 29.56 830 24.51 -0.3 31.5 94 -1.2 29.9
02:20 1001 29.56 830 24.51 -0.3 31.4 94 -1.2 29.8
02:25 1001 29.56 830 24.51 -0.5 31 93 -1.5 29.3
02:30 1001 29.56 830 24.51 -0.7 30.7 93 -1.7 28.9
02:35 1001 29.56 830 24.51 -0.9 30.4 93 -2 28.5
02:40 1001 29.56 830 24.51 -1.1 30.1 93 -2.1 28.2
02:45 1001 29.56 830 24.51 -1.2 29.9 93 -2.2 28.1
02:50 1001 29.56 830 24.51 -1.2 29.8 92 -2.3 27.9
02:55 1001 29.56 830 24.51 -1.3 29.7 92 -2.4 27.6
03:00 1001 29.56 830 24.51 -1.3 29.6 92 -2.4 27.6
03:05 1001 29.56 830 24.51 -1.4 29.5 92 -2.5 27.5
03:10 1001 29.56 830 24.51 -1.4 29.5 92 -2.5 27.5
03:15 1001 29.56 830 24.51 -1.4 29.4 92 -2.6 27.4
03:20 1001 29.56 830 24.51 -1.5 29.4 92 -2.5 27.4
03:25 1001 29.56 830 24.51 -1.5 29.3 93 -2.6 27.4
03:30 1001 29.56 830 24.51 -1.5 29.2 93 -2.6 27.3
03:35 1001 29.56 830 24.51 -1.6 29.2 92 -2.7 27.1
03:40 1001 29.56 830 24.51 -1.6 29.2 91 -2.8 27
03:45 1001 29.56 830 24.51 -1.6 29.2 91 -2.9 26.8
03:50 1001 29.56 830 24.51 -1.6 29.1 91 -2.9 26.9
03:55 1001 29.56 830 24.51 -1.6 29.1 91 -2.9 26.8
04:00 1001 29.56 831 24.54 -1.7 29 91 -3 26.6
04:05 1001 29.56 831 24.54 -1.7 29 90 -3.2 26.3
04:10 1001 29.56 831 24.54 -1.6 29.1 90 -3.1 26.5
04:15 1001 29.56 831 24.54 -1.6 29.1 89 -3.2 26.3
04:20 1001 29.56 831 24.54 -1.6 29.1 89 -3.2 26.2
04:25 1001 29.56 831 24.54 -1.6 29.1 89 -3.2 26.3
04:30 1001 29.56 831 24.54 -1.6 29.1 89 -3.2 26.3
04:35 1001 29.56 831 24.54 -1.6 29.1 89 -3.2 26.3
04:40 1001 29.56 831 24.54 -1.6 29.2 89 -3.1 26.4
04:45 1001 29.56 831 24.54 -1.6 29.1 89 -3.1 26.4
04:50 1001 29.56 830 24.51 -1.6 29.1 89 -3.2 26.2
04:55 1001 29.56 830 24.51 -1.6 29.1 90 -3.1 26.4
05:00 1001 29.56 831 24.54 -1.6 29.1 90 -3.1 26.5
05:05 1001 29.56 831 24.54 -1.6 29.1 91 -2.9 26.8
05:10 1002 29.59 831 24.54 -1.5 29.2 92 -2.7 27.1
05:15 1002 29.59 831 24.54 -1.5 29.3 92 -2.6 27.3
05:20 1002 29.59 831 24.54 -1.5 29.3 93 -2.5 27.5
05:25 1002 29.59 831 24.54 -1.4 29.5 93 -2.4 27.7
05:30 1002 29.59 831 24.54 -1.3 29.6 93 -2.3 27.9
05:35 1002 29.59 831 24.54 -1.3 29.6 93 -2.2 28
05:40 1002 29.59 831 24.54 -1.3 29.7 93 -2.2 28
05:45 1002 29.59 831 24.54 -1.3 29.6 93 -2.2 28
05:50 1002 29.59 831 24.54 -1.4 29.5 93 -2.3 27.8
05:55 1002 29.59 831 24.54 -1.4 29.5 94 -2.3 27.9
06:00 1002 29.59 831 24.54 -1.4 29.5 94 -2.3 27.8
06:05 1002 29.59 831 24.54 -1.5 29.3 94 -2.4 27.7
06:10 1002 29.59 831 24.54 -1.5 29.2 94 -2.4 27.7
06:15 1002 29.59 831 24.54 -1.5 29.3 94 -2.4 27.7
06:20 1002 29.59 831 24.54 -1.6 29.1 94 -2.5 27.5
06:25 1002 29.59 831 24.54 -1.7 28.9 94 -2.6 27.4
06:30 1002 29.59 831 24.54 -1.8 28.7 94 -2.7 27.2
06:35 1002 29.59 831 24.54 -1.9 28.6 94 -2.7 27.1
06:40 1002 29.59 831 24.54 -2 28.5 94 -2.8 26.9
06:45 1002 29.59 832 24.57 -2 28.4 94 -2.8 26.9
06:50 1002 29.59 832 24.57 -2 28.4 94 -2.9 26.8
06:55 1002 29.59 832 24.57 -2 28.3 94 -2.9 26.8
07:00 1003 29.62 832 24.57 -2.1 28.3 94 -3 26.7
07:05 1003 29.62 832 24.57 -2 28.3 93 -3 26.7
07:10 1003 29.62 832 24.57 -2.1 28.2 93 -3 26.5
07:15 1003 29.62 832 24.57 -2.2 28.1 93 -3.1 26.3
07:20 1003 29.62 832 24.57 -2.3 27.9 93 -3.2 26.2
07:25 1003 29.62 832 24.57 -2.2 28 93 -3.2 26.2
07:30 1003 29.62 832 24.57 -2.2 28 93 -3.3 26.1
07:35 1003 29.62 832 24.57 -2.2 28 92 -3.3 26
07:40 1003 29.62 832 24.57 -2.3 27.9 93 -3.3 26
07:45 1003 29.62 832 24.57 -2.3 27.9 93 -3.3 26
07:50 1003 29.62 832 24.57 -2.3 27.8 93 -3.4 25.9
07:55 1003 29.62 832 24.57 -2.3 27.8 93 -3.4 26
08:00 1003 29.62 832 24.57 -2.4 27.7 93 -3.4 26
08:05 1003 29.62 832 24.57 -2.4 27.7 93 -3.4 25.9
08:10 1003 29.62 832 24.57 -2.4 27.7 93 -3.4 25.9
08:15 1003 29.62 832 24.57 -2.4 27.6 93 -3.4 25.9
08:20 1003 29.62 833 24.6 -2.4 27.7 93 -3.3 26
08:25 1003 29.62 833 24.6 -2.4 27.7 94 -3.3 26.1
08:30 1003 29.62 833 24.6 -2.3 27.9 94 -3.2 26.3
08:35 1003 29.62 833 24.6 -2.2 28.1 94 -3 26.6
08:40 1003 29.62 833 24.6 -2 28.3 94 -2.9 26.8
08:45 1004 29.65 833 24.6 -2 28.3 94 -2.9 26.8
08:50 1004 29.65 833 24.6 -2 28.5 94 -2.8 27
08:55 1004 29.65 833 24.6 -2 28.5 94 -2.8 27
09:00 1004 29.65 833 24.6 -2 28.4 94 -2.8 27
09:05 1004 29.65 833 24.6 -2 28.3 94 -2.9 26.8
09:10 1004 29.65 833 24.6 -2.1 28.3 94 -2.9 26.8
09:15 1004 29.65 833 24.6 -2.1 28.2 94 -2.9 26.7
09:20 1004 29.65 833 24.6 -2.1 28.1 94 -3 26.6
09:25 1004 29.65 833 24.6 -2.3 27.9 94 -3.1 26.3
09:30 1004 29.65 834 24.63 -2.4 27.8 94 -3.2 26.2
09:35 1004 29.65 834 24.63 -2.4 27.7 94 -3.3 26.1
09:40 1004 29.65 834 24.63 -2.4 27.7 94 -3.3 26.1
09:45 1005 29.68 834 24.63 -2.4 27.7 94 -3.3 26.1
09:50 1005 29.68 834 24.63 -2.4 27.7 94 -3.3 26.1
09:55 1005 29.68 834 24.63 -2.4 27.6 93 -3.4 26
10:00 1005 29.68 834 24.63 -2.5 27.6 93 -3.4 25.9
10:05 1005 29.68 834 24.63 -2.5 27.6 93 -3.4 25.9
10:10 1005 29.68 834 24.63 -2.5 27.5 93 -3.5 25.7
10:15 1005 29.68 834 24.63 -2.5 27.4 93 -3.5 25.7
10:20 1005 29.68 834 24.63 -2.6 27.4 93 -3.6 25.5
10:25 1005 29.68 834 24.63 -2.8 27 93 -3.8 25.2
10:30 1005 29.68 834 24.63 -2.8 27 93 -3.8 25.2
10:35 1005 29.68 834 24.63 -2.8 27 93 -3.8 25.1
10:40 1005 29.68 834 24.63 -2.9 26.8 93 -3.9 24.9
10:45 1005 29.68 834 24.63 -3 26.6 93 -4 24.8
10:50 1005 29.68 835 24.66 -3.1 26.5 93 -4.1 24.7
10:55 1005 29.68 835 24.66 -3.1 26.4 93 -4.1 24.6
11:00 1005 29.68 835 24.66 -3.2 26.3 93 -4.1 24.6
11:05 1005 29.68 835 24.66 -3.1 26.4 93 -4.1 24.6
11:10 1006 29.71 835 24.66 -3.2 26.3 93 -4.2 24.5
11:15 1006 29.71 835 24.66 -3.1 26.3 93 -4.1 24.5
11:20 1006 29.71 835 24.66 -3.1 26.5 93 -4.1 24.6
11:25 1006 29.71 835 24.66 -3.2 26.3 92 -4.2 24.4
11:30 1006 29.71 835 24.66 -3.2 26.3 92 -4.3 24.3
11:35 1006 29.71 835 24.66 -3.2 26.3 92 -4.2 24.4
11:40 1006 29.71 835 24.66 -3.1 26.3 92 -4.3 24.3
11:45 1006 29.71 835 24.66 -3.3 26.1 92 -4.4 24.1
11:50 1006 29.71 835 24.66 -3.3 26.1 92 -4.4 24.1
11:55 1006 29.71 835 24.66 -3.3 26 92 -4.4 24
12:00 1006 29.71 835 24.66 -3.3 26 92 -4.4 24
12:05 1006 29.71 835 24.66 -3.2 26.2 92 -4.4 24.1
12:10 1006 29.71 835 24.66 -3.2 26.3 92 -4.3 24.3
12:15 1006 29.71 835 24.66 -2.9 26.7 91 -4.1 24.6
12:20 1006 29.71 835 24.66 -2.8 26.9 91 -4.1 24.6
12:25 1006 29.71 835 24.66 -2.9 26.9 91 -4.2 24.5
12:30 1006 29.71 835 24.66 -3 26.6 91 -4.3 24.2
12:35 1006 29.71 836 24.69 -3.1 26.4 92 -4.3 24.3
12:40 1006 29.71 836 24.69 -3 26.6 91 -4.3 24.3
12:45 1006 29.71 836 24.69 -3 26.6 91 -4.3 24.3
12:50 1006 29.71 836 24.69 -3 26.5 91 -4.4 24.2
12:55 1006 29.71 836 24.69 -3.2 26.2 91 -4.5 24
13:00 1007 29.74 836 24.69 -3.2 26.2 91 -4.5 24
13:05 1007 29.74 836 24.69 -3.2 26.2 91 -4.5 24
13:10 1007 29.74 836 24.69 -3.3 26 91 -4.5 23.8
13:15 1007 29.74 836 24.69 -3.3 26 91 -4.6 23.8
13:20 1007 29.74 836 24.69 -3.3 26 91 -4.6 23.8
13:25 1007 29.74 836 24.69 -3.3 26 91 -4.6 23.7
13:30 1007 29.74 836 24.69 -3.4 25.9 91 -4.6 23.7
13:35 1007 29.74 836 24.69 -3.5 25.7 91 -4.8 23.4
13:40 1007 29.74 836 24.69 -3.5 25.6 91 -4.8 23.4
13:45 1007 29.74 836 24.69 -3.5 25.7 91 -4.7 23.5
13:50 1007 29.74 836 24.69 -3.5 25.8 91 -4.7 23.5
13:55 1007 29.74 836 24.69 -3.4 25.9 91 -4.7 23.6
14:00 1007 29.74 836 24.69 -3.4 25.9 92 -4.6 23.7
14:05 1007 29.74 836 24.69 -3.3 26.1 91 -4.5 23.8
14:10 1007 29.74 836 24.69 -3.4 25.8 91 -4.7 23.5
14:15 1007 29.74 836 24.69 -3.6 25.4 91 -4.9 23.2
14:20 1007 29.74 836 24.69 -3.7 25.3 91 -5.1 22.9
14:25 1007 29.74 836 24.69 -3.8 25.1 91 -5 22.9
14:30 1007 29.74 836 24.69 -3.7 25.4 92 -4.8 23.3
14:35 1007 29.74 836 24.69 -3.5 25.6 91 -4.8 23.3
14:40 1007 29.74 836 24.69 -3.9 25 91 -5.2 22.6
14:45 1007 29.74 836 24.69 -4.1 24.6 91 -5.4 22.3
14:50 1007 29.74 837 24.72 -4.2 24.4 91 -5.6 22
14:55 1007 29.74 837 24.72 -4.3 24.2 91 -5.6 21.8
15:00 1007 29.74 837 24.72 -4.4 24.1 90 -5.7 21.7
15:05 1008 29.77 837 24.72 -4.5 23.9 91 -5.8 21.6
15:10 1008 29.77 837 24.72 -4.5 23.9 90 -5.9 21.3
15:15 1008 29.77 837 24.72 -4.8 23.3 91 -6.1 21
15:20 1008 29.77 837 24.72 -4.9 23.2 91 -6.1 20.9
15:25 1008 29.77 837 24.72 -5 23 91 -6.3 20.7
15:30 1008 29.77 837 24.72 -5 22.9 91 -6.3 20.7
15:35 1008 29.77 837 24.72 -5.1 22.8 90 -6.4 20.4
15:40 1008 29.77 837 24.72 -5.3 22.5 90 -6.6 20.1
15:45 1008 29.77 837 24.72 -5.4 22.4 91 -6.7 20
15:50 1008 29.77 837 24.72 -5.5 22.2 91 -6.7 19.9
15:55 1008 29.77 837 24.72 -5.5 22.2 91 -6.8 19.8
16:00 1008 29.77 837 24.72 -5.5 22 91 -6.8 19.7
16:05 1008 29.77 838 24.75 -5.6 21.9 91 -6.9 19.6
16:10 1008 29.77 838 24.75 -5.7 21.8 91 -6.9 19.5
16:15 1008 29.77 838 24.75 -5.6 21.8 91 -7 19.5
16:20 1009 29.8 838 24.75 -5.7 21.8 90 -7 19.3
16:25 1009 29.8 838 24.75 -5.7 21.7 90 -7.1 19.3
16:30 1009 29.8 838 24.75 -5.7 21.8 90 -7.1 19.2
16:35 1009 29.8 838 24.75 -5.8 21.6 89 -7.2 19
16:40 1009 29.8 838 24.75 -5.8 21.5 90 -7.2 19
16:45 1009 29.8 838 24.75 -5.9 21.4 89 -7.4 18.7
16:50 1009 29.8 838 24.75 -6 21.2 90 -7.4 18.6
16:55 1009 29.8 838 24.75 -6 21.1 90 -7.4 18.6
17:00 1009 29.8 838 24.75 -6.1 21 90 -7.5 18.5
17:05 1009 29.8 839 24.78 -6.2 20.9 90 -7.5 18.4
17:10 1009 29.8 839 24.78 -6.2 20.9 90 -7.6 18.3
17:15 1009 29.8 839 24.78 -6.3 20.7 89 -7.8 18
17:20 1010 29.83 839 24.78 -6.3 20.6 89 -7.8 18
17:25 1010 29.83 839 24.78 -6.3 20.6 89 -7.8 17.9
17:30 1010 29.83 839 24.78 -6.3 20.6 89 -7.8 18
17:35 1010 29.83 839 24.78 -6.4 20.5 89 -8 17.7
17:40 1010 29.83 839 24.78 -6.4 20.5 89 -8 17.6
17:45 1010 29.83 839 24.78 -6.4 20.5 89 -8 17.6
17:50 1010 29.83 839 24.78 -6.4 20.4 89 -8 17.6
17:55 1010 29.83 839 24.78 -6.5 20.4 89 -8 17.6
18:00 1010 29.83 839 24.78 -6.4 20.4 89 -8 17.5
18:05 1010 29.83 839 24.78 -6.5 20.3 89 -8.1 17.5
18:10 1010 29.83 839 24.78 -6.5 20.2 88 -8.2 17.3
18:15 1010 29.83 839 24.78 -6.5 20.3 88 -8.2 17.3
18:20 1010 29.83 839 24.78 -6.5 20.3 88 -8.2 17.2
18:25 1010 29.83 840 24.81 -6.5 20.2 88 -8.3 17.1
18:30 1010 29.83 840 24.81 -6.6 20.1 88 -8.3 17.1
18:35 1011 29.85 840 24.81 -6.6 20.1 88 -8.3 17.1
18:40 1011 29.85 840 24.81 -6.6 20.1 88 -8.3 17.1
18:45 1011 29.85 840 24.81 -6.6 20.1 88 -8.3 17.1
18:50 1011 29.85 840 24.81 -6.6 20.1 88 -8.3 17.1
18:55 1011 29.85 840 24.81 -6.7 20 88 -8.3 17
19:00 1011 29.85 840 24.81 -6.7 19.9 88 -8.4 16.9
19:05 1011 29.85 840 24.81 -6.7 19.9 88 -8.4 16.9
19:10 1011 29.85 840 24.81 -6.7 19.9 88 -8.4 16.9
19:15 1011 29.85 840 24.81 -6.7 19.9 88 -8.4 16.9
19:20 1011 29.85 840 24.81 -6.7 19.9 88 -8.4 16.9
19:25 1011 29.85 840 24.81 -6.7 19.9 88 -8.4 16.9
19:30 1011 29.85 841 24.83 -6.8 19.8 88 -8.4 16.8
19:35 1011 29.85 841 24.83 -6.8 19.8 88 -8.5 16.7
19:40 1011 29.85 841 24.83 -6.8 19.7 88 -8.6 16.6
19:45 1011 29.85 841 24.83 -6.8 19.7 87 -8.6 16.6
19:50 1012 29.88 841 24.83 -6.9 19.7 87 -8.7 16.4
19:55 1012 29.88 841 24.83 -6.9 19.6 87 -8.7 16.3
20:00 1012 29.88 841 24.83 -6.9 19.7 87 -8.7 16.3
20:05 1012 29.88 841 24.83 -6.9 19.6 87 -8.7 16.4
20:10 1012 29.88 841 24.83 -6.9 19.6 87 -8.7 16.3
20:15 1012 29.88 841 24.83 -6.9 19.6 86 -8.8 16.2
20:20 1012 29.88 841 24.83 -6.8 19.7 86 -8.8 16.2
20:25 1012 29.88 841 24.83 -6.9 19.6 87 -8.8 16.2
20:30 1012 29.88 841 24.83 -6.9 19.6 87 -8.8 16.2
20:35 1012 29.88 841 24.83 -7 19.5 87 -8.8 16.1
20:40 1012 29.88 842 24.86 -7 19.4 87 -8.8 16.2
20:45 1012 29.88 842 24.86 -7 19.4 87 -8.9 16.1
20:50 1012 29.88 842 24.86 -7 19.4 87 -8.9 16
20:55 1012 29.88 842 24.86 -7 19.4 87 -8.9 16
21:00 1012 29.88 842 24.86 -7 19.4 86 -8.9 15.9
21:05 1012 29.88 842 24.86 -7.1 19.3 86 -9 15.8
21:10 1012 29.88 842 24.86 -7.2 19.1 86 -9 15.7
21:15 1013 29.91 842 24.86 -7.2 19.1 86 -9.1 15.6
21:20 1013 29.91 842 24.86 -7.2 19 86 -9.1 15.6
21:25 1013 29.91 842 24.86 -7.2 19 86 -9.1 15.6
21:30 1013 29.91 842 24.86 -7.3 18.9 86 -9.2 15.4
21:35 1013 29.91 842 24.86 -7.3 18.9 86 -9.2 15.4
21:40 1013 29.91 842 24.86 -7.3 18.8 86 -9.3 15.3
21:45 1013 29.91 842 24.86 -7.3 18.9 86 -9.3 15.3
21:50 1013 29.91 842 24.86 -7.3 18.9 86 -9.3 15.3
21:55 1013 29.91 842 24.86 -7.3 18.9 86 -9.3 15.2
22:00 1013 29.91 842 24.86 -7.3 18.8 86 -9.3 15.3
22:05 1013 29.91 842 24.86 -7.3 18.9 86 -9.3 15.3
22:10 1013 29.91 842 24.86 -7.3 18.8 86 -9.3 15.2
22:15 1013 29.91 842 24.86 -7.3 18.9 86 -9.3 15.3
22:20 1013 29.91 842 24.86 -7.2 19 86 -9.2 15.4
22:25 1013 29.91 842 24.86 -7.2 19 85 -9.3 15.3
22:30 1013 29.91 842 24.86 -7.2 19 85 -9.3 15.3
22:35 1013 29.91 842 24.86 -7.2 19.1 85 -9.3 15.3
22:40 1013 29.91 842 24.86 -7.2 19.1 85 -9.2 15.4
22:45 1013 29.91 842 24.86 -7.1 19.1 86 -9.2 15.5
22:50 1013 29.91 842 24.86 -7.1 19.1 86 -9.1 15.6
22:55 1013 29.91 843 24.89 -7.2 19.1 86 -9.1 15.6
23:00 1013 29.91 843 24.89 -7.2 19 87 -9.1 15.7
23:05 1013 29.91 843 24.89 -7.2 19.1 87 -9 15.8
23:10 1013 29.91 843 24.89 -7.1 19.2 87 -9 15.8
23:15 1013 29.91 843 24.89 -7.1 19.3 87 -8.9 16
23:20 1013 29.91 843 24.89 -7.1 19.3 87 -8.9 16
23:25 1013 29.91 843 24.89 -7.1 19.2 87 -8.9 16.1
23:30 1013 29.91 843 24.89 -7.1 19.2 87 -8.9 16.1
23:35 1013 29.91 843 24.89 -7.1 19.2 88 -8.8 16.1
23:40 1014 29.94 843 24.89 -7.1 19.2 88 -8.8 16.2
23:45 1014 29.94 843 24.89 -7.1 19.2 88 -8.8 16.2
23:50 1014 29.94 843 24.89 -7.1 19.2 88 -8.8 16.2
23:55 1014 29.94 843 24.89 -7.1 19.2 88 -8.8 16.1
24:00 1014 29.94 843 24.89 -7.1 19.2 88 -8.8 16.2